createdAt,value
2022-12-19T00:00:31.238Z,20.60
2022-12-19T00:03:01.199Z,19.30
2022-12-19T00:05:29.717Z,15.63
2022-12-19T00:07:58.597Z,13.80
2022-12-19T00:10:29.076Z,15.13
2022-12-19T00:12:57.597Z,13.97
2022-12-19T00:15:26.063Z,14.57
2022-12-19T00:17:54.489Z,15.73
2022-12-19T00:20:24.290Z,14.90
2022-12-19T00:22:52.690Z,14.23
2022-12-19T00:25:21.082Z,13.80
2022-12-19T00:27:50.410Z,11.70
2022-12-19T00:30:18.870Z,13.07
2022-12-19T00:32:47.737Z,15.93
2022-12-19T00:35:16.426Z,15.97
2022-12-19T00:37:49.599Z,16.10
2022-12-19T00:40:18.646Z,17.70
2022-12-19T00:42:53.159Z,16.80
2022-12-19T00:45:22.173Z,14.40
2022-12-19T00:47:50.606Z,13.93
2022-12-19T00:50:19.207Z,15.70
2022-12-19T00:52:48.988Z,15.17
2022-12-19T00:55:19.064Z,16.17
2022-12-19T00:57:47.879Z,15.17
2022-12-19T01:00:17.142Z,13.77
2022-12-19T01:02:45.911Z,14.37
2022-12-19T01:05:14.437Z,13.23
2022-12-19T01:07:43.012Z,14.10
2022-12-19T01:10:13.059Z,13.40
2022-12-19T01:12:46.419Z,13.20
2022-12-19T01:15:15.637Z,12.63
2022-12-19T01:17:44.994Z,12.73
2022-12-19T01:20:14.399Z,11.33
2022-12-19T01:22:42.769Z,12.27
2022-12-19T01:25:11.239Z,11.83
2022-12-19T01:27:41.035Z,10.70
2022-12-19T01:30:10.044Z,10.67
2022-12-19T01:32:39.569Z,10.83
2022-12-19T01:35:09.883Z,10.37
2022-12-19T01:37:44.327Z,9.63
2022-12-19T01:40:14.536Z,9.47
2022-12-19T01:42:44.318Z,10.50
2022-12-19T01:45:34.425Z,10.43
2022-12-19T01:48:09.694Z,9.77
2022-12-19T01:50:39.592Z,10.90
2022-12-19T01:53:13.155Z,10.13
2022-12-19T01:55:42.254Z,11.50
2022-12-19T01:58:12.398Z,11.03
2022-12-19T02:00:41.120Z,10.87
2022-12-19T02:03:12.464Z,10.23
2022-12-19T02:05:42.109Z,9.70
2022-12-19T02:08:10.569Z,11.73
2022-12-19T02:10:39.000Z,11.83
2022-12-19T02:13:07.622Z,11.90
2022-12-19T02:15:50.995Z,12.40
2022-12-19T02:18:22.924Z,12.70
2022-12-19T02:21:02.996Z,13.20
2022-12-19T02:23:49.773Z,13.03
2022-12-19T02:26:28.229Z,13.67
2022-12-19T02:29:00.588Z,14.03
2022-12-19T02:31:31.545Z,12.80
2022-12-19T02:34:05.247Z,15.23
2022-12-19T02:36:40.244Z,16.03
2022-12-19T02:39:11.594Z,16.20
2022-12-19T02:41:44.229Z,15.57
2022-12-19T02:44:14.118Z,18.17
2022-12-19T02:46:45.222Z,17.10
2022-12-19T02:49:14.058Z,15.47
2022-12-19T02:51:49.416Z,16.30
2022-12-19T02:54:18.158Z,24.87
2022-12-19T02:56:50.591Z,17.13
2022-12-19T02:59:30.954Z,16.00
2022-12-19T03:02:03.193Z,16.77
2022-12-19T03:04:37.221Z,16.80
2022-12-19T03:07:10.684Z,16.43
2022-12-19T03:09:41.526Z,15.97
2022-12-19T03:12:17.255Z,15.20
2022-12-19T03:14:47.469Z,16.13
2022-12-19T03:17:17.372Z,15.97
2022-12-19T03:19:45.947Z,15.37
2022-12-19T03:22:14.385Z,15.90
2022-12-19T03:24:42.928Z,14.60
2022-12-19T03:27:13.258Z,16.13
2022-12-19T03:29:47.361Z,16.93
2022-12-19T03:32:18.149Z,17.80
2022-12-19T03:34:49.180Z,18.17
2022-12-19T03:37:19.985Z,18.07
2022-12-19T03:39:50.013Z,15.30
2022-12-19T03:42:37.539Z,16.33
2022-12-19T03:45:06.771Z,15.03
2022-12-19T03:47:37.297Z,16.50
2022-12-19T03:50:06.125Z,17.73
2022-12-19T03:52:38.016Z,15.77
2022-12-19T03:55:08.204Z,16.13
2022-12-19T03:57:38.998Z,15.63
2022-12-19T04:00:08.841Z,15.60
2022-12-19T04:02:39.780Z,15.70
2022-12-19T04:05:09.659Z,16.87
2022-12-19T04:07:38.374Z,17.23
2022-12-19T04:10:07.995Z,15.70
2022-12-19T04:12:39.365Z,15.03
2022-12-19T04:15:08.903Z,13.93
2022-12-19T04:17:41.698Z,12.00
2022-12-19T04:20:12.547Z,11.57
2022-12-19T04:22:42.456Z,11.53
2022-12-19T04:25:13.314Z,11.03
2022-12-19T04:27:43.364Z,11.83
2022-12-19T04:30:14.820Z,11.23
2022-12-19T04:32:44.808Z,11.30
2022-12-19T04:35:13.279Z,11.80
2022-12-19T04:37:41.874Z,10.40
2022-12-19T04:40:11.210Z,12.10
2022-12-19T04:42:39.678Z,11.73
2022-12-19T04:45:08.641Z,12.20
2022-12-19T04:47:37.225Z,12.47
2022-12-19T04:50:07.506Z,13.10
2022-12-19T04:52:35.888Z,13.63
2022-12-19T04:55:04.540Z,13.90
2022-12-19T04:57:33.073Z,13.70
2022-12-19T05:00:03.927Z,12.87
2022-12-19T05:02:32.619Z,13.30
2022-12-19T05:05:01.125Z,13.30
2022-12-19T05:07:30.976Z,13.87
2022-12-19T05:09:59.367Z,13.30
2022-12-19T05:12:27.827Z,14.33
2022-12-19T05:14:56.244Z,13.40
2022-12-19T05:17:24.673Z,14.47
2022-12-19T05:19:53.070Z,13.43
2022-12-19T05:22:21.477Z,13.50
2022-12-19T05:24:51.309Z,14.40
2022-12-19T05:27:19.704Z,14.30
2022-12-19T05:29:48.108Z,12.83
2022-12-19T05:32:16.689Z,13.90
2022-12-19T05:34:45.083Z,13.07
2022-12-19T05:37:13.496Z,12.77
2022-12-19T05:39:41.916Z,13.83
2022-12-19T05:42:12.642Z,13.53
2022-12-19T05:44:41.281Z,13.43
2022-12-19T05:47:09.855Z,14.43
2022-12-19T05:49:38.299Z,12.10
2022-12-19T05:52:06.892Z,12.80
2022-12-19T05:54:35.440Z,14.13
2022-12-19T05:57:03.876Z,14.07
2022-12-19T05:59:33.690Z,13.30
2022-12-19T06:02:02.201Z,14.27
2022-12-19T06:04:31.198Z,14.20
2022-12-19T06:06:59.677Z,14.00
2022-12-19T06:09:28.156Z,13.70
2022-12-19T06:11:56.613Z,14.57
2022-12-19T06:14:25.137Z,14.07
2022-12-19T06:16:55.225Z,13.77
2022-12-19T06:19:24.077Z,14.07
2022-12-19T06:21:52.496Z,12.70
2022-12-19T06:24:21.486Z,13.13
2022-12-19T06:26:49.923Z,12.43
2022-12-19T06:29:18.393Z,12.63
2022-12-19T06:31:46.856Z,13.63
2022-12-19T06:34:33.214Z,14.03
2022-12-19T06:37:08.086Z,13.33
2022-12-19T06:39:37.031Z,13.67
2022-12-19T06:42:22.884Z,13.17
2022-12-19T06:44:51.438Z,13.10
2022-12-19T06:47:20.136Z,13.77
2022-12-19T06:49:51.721Z,14.43
2022-12-19T06:52:20.223Z,13.70
2022-12-19T06:54:48.677Z,15.17
2022-12-19T06:57:17.106Z,13.77
2022-12-19T06:59:45.532Z,13.83
2022-12-19T07:02:20.465Z,14.03
2022-12-19T07:04:49.829Z,13.80
2022-12-19T07:07:19.611Z,14.50
2022-12-19T07:09:48.022Z,13.93
2022-12-19T07:12:16.478Z,14.17
2022-12-19T07:14:47.828Z,14.33
2022-12-19T07:17:20.822Z,14.73
2022-12-19T07:19:49.289Z,15.30
2022-12-19T07:22:19.247Z,14.40
2022-12-19T07:24:47.809Z,15.80
2022-12-19T07:27:16.191Z,15.43
2022-12-19T07:29:44.704Z,15.37
2022-12-19T07:32:13.079Z,15.20
2022-12-19T07:34:41.465Z,15.07
2022-12-19T07:37:09.845Z,15.47
2022-12-19T07:39:39.655Z,16.70
2022-12-19T07:42:08.105Z,16.73
2022-12-19T07:44:37.203Z,14.70
2022-12-19T07:47:05.703Z,17.70
2022-12-19T07:49:34.111Z,15.20
2022-12-19T07:52:02.582Z,15.60
2022-12-19T07:54:30.984Z,15.13
2022-12-19T07:57:00.755Z,16.13
2022-12-19T07:59:33.300Z,15.83
2022-12-19T08:02:07.319Z,15.67
2022-12-19T08:04:36.748Z,15.40
2022-12-19T08:07:05.194Z,16.77
2022-12-19T08:09:33.611Z,16.20
2022-12-19T08:12:04.359Z,17.07
2022-12-19T08:14:32.756Z,16.60
2022-12-19T08:19:49.554Z,17.00
2022-12-19T08:22:17.942Z,18.17
2022-12-19T08:24:47.562Z,19.17
2022-12-19T08:27:18.817Z,17.20
2022-12-19T08:29:47.498Z,19.63
2022-12-19T08:32:20.790Z,18.80
2022-12-19T08:34:49.570Z,19.20
2022-12-19T08:37:18.102Z,20.07
2022-12-19T08:39:46.585Z,19.80
2022-12-19T08:42:15.030Z,22.50
2022-12-19T08:44:44.819Z,20.67
2022-12-19T08:47:13.541Z,20.97
2022-12-19T08:49:42.016Z,22.20
2022-12-19T08:52:10.526Z,21.67
2022-12-19T08:54:39.260Z,21.17
2022-12-19T08:57:07.680Z,21.60
2022-12-19T08:59:36.105Z,21.10
2022-12-19T09:02:06.990Z,20.23
2022-12-19T09:06:03.648Z,20.83
2022-12-19T09:07:24.067Z,20.57
2022-12-19T09:09:52.434Z,21.53
2022-12-19T09:12:21.148Z,19.67
2022-12-19T09:14:49.621Z,20.87
2022-12-19T09:17:19.417Z,21.43
2022-12-19T09:19:48.380Z,20.63
2022-12-19T09:22:17.617Z,21.57
2022-12-19T09:24:46.057Z,21.50
2022-12-19T09:27:14.730Z,19.73
2022-12-19T09:29:43.781Z,21.17
2022-12-19T09:32:12.623Z,21.30
2022-12-19T09:34:42.500Z,19.40
2022-12-19T09:37:17.037Z,19.07
2022-12-19T09:39:47.243Z,21.13
2022-12-19T09:42:20.666Z,20.43
2022-12-19T09:44:59.226Z,18.87
2022-12-19T09:47:31.361Z,19.63
2022-12-19T09:50:02.143Z,17.90
2022-12-19T09:52:33.181Z,20.87
2022-12-19T09:55:04.166Z,22.40
2022-12-19T09:57:36.469Z,22.33
2022-12-19T10:00:06.800Z,22.03
2022-12-19T10:02:39.197Z,22.93
2022-12-19T10:05:51.700Z,23.07
2022-12-19T10:08:08.871Z,21.83
2022-12-19T10:12:36.560Z,19.20
2022-12-19T10:13:37.790Z,23.83
2022-12-19T10:16:10.954Z,20.73
2022-12-19T10:18:44.508Z,21.50
2022-12-19T10:21:37.021Z,21.17
2022-12-19T10:24:22.627Z,19.57
2022-12-19T10:26:52.959Z,20.97
2022-12-19T10:29:45.181Z,22.07
2022-12-19T10:32:16.947Z,21.53
2022-12-19T10:34:46.543Z,24.10
2022-12-19T10:37:25.669Z,23.03
2022-12-19T10:40:06.509Z,23.93
2022-12-19T10:42:45.805Z,21.13
2022-12-19T10:45:17.104Z,21.87
2022-12-19T10:47:45.497Z,23.07
2022-12-19T10:50:14.704Z,23.00
2022-12-19T10:52:51.271Z,21.50
2022-12-19T10:55:24.544Z,23.87
2022-12-19T10:57:53.024Z,24.87
2022-12-19T11:00:21.640Z,23.47
2022-12-19T11:02:51.691Z,22.87
2022-12-19T11:05:25.276Z,24.23
2022-12-19T11:08:17.705Z,24.53
2022-12-19T11:12:24.211Z,22.17
2022-12-19T11:17:49.588Z,23.17
2022-12-19T11:21:33.343Z,21.63
2022-12-19T11:29:30.142Z,21.83
2022-12-19T11:30:07.047Z,21.70
2022-12-19T11:30:36.188Z,20.30
2022-12-19T11:30:43.369Z,22.43
2022-12-19T11:31:52.994Z,21.87
2022-12-19T11:33:48.823Z,22.33
2022-12-19T11:36:30.713Z,22.63
2022-12-19T11:38:59.222Z,21.33
2022-12-19T11:41:33.250Z,22.10
2022-12-19T11:44:03.580Z,21.37
2022-12-19T11:46:36.756Z,21.83
2022-12-19T11:49:07.658Z,21.73
2022-12-19T11:51:40.670Z,22.97
2022-12-19T11:54:15.035Z,21.67
2022-12-19T11:56:44.863Z,21.43
2022-12-19T11:59:14.838Z,20.60
2022-12-19T12:01:47.087Z,22.37
2022-12-19T12:04:39.572Z,22.17
2022-12-19T12:07:32.485Z,20.53
2022-12-19T12:14:38.903Z,21.93
2022-12-19T12:21:10.802Z,24.00
2022-12-19T12:26:45.098Z,22.90
2022-12-19T12:31:28.730Z,24.73
2022-12-19T12:31:31.253Z,25.70
2022-12-19T12:31:41.876Z,23.93
2022-12-19T12:31:56.214Z,24.80
2022-12-19T12:31:57.585Z,24.43
2022-12-19T12:35:56.312Z,24.90
2022-12-19T12:39:05.819Z,26.73
2022-12-19T12:41:58.396Z,24.70
2022-12-19T12:44:32.861Z,24.67
2022-12-19T12:47:07.286Z,25.30
2022-12-19T12:49:39.566Z,24.83
2022-12-19T12:52:09.901Z,25.33
2022-12-19T12:54:39.923Z,25.80
2022-12-19T12:57:08.406Z,23.77
2022-12-19T12:59:39.739Z,24.47
2022-12-19T13:02:16.486Z,24.07
2022-12-19T13:04:55.862Z,24.27
2022-12-19T13:07:42.429Z,25.23
2022-12-19T13:10:22.906Z,23.30
2022-12-19T13:13:01.785Z,24.73
2022-12-19T13:15:37.329Z,27.07
2022-12-19T13:18:24.105Z,24.70
2022-12-19T13:20:53.953Z,25.13
2022-12-19T13:23:25.161Z,22.10
2022-12-19T13:25:54.567Z,21.53
2022-12-19T13:28:43.419Z,24.23
2022-12-19T13:31:23.184Z,22.87
2022-12-19T13:34:16.133Z,24.33
2022-12-19T13:39:58.421Z,22.10
2022-12-19T13:39:59.203Z,23.27
2022-12-19T13:42:55.997Z,22.70
2022-12-19T13:45:40.563Z,22.83
2022-12-19T13:48:14.654Z,24.33
2022-12-19T13:50:43.526Z,23.20
2022-12-19T13:53:16.592Z,24.07
2022-12-19T13:55:45.353Z,22.77
2022-12-19T13:58:28.886Z,23.13
2022-12-19T14:00:59.852Z,24.93
2022-12-19T14:03:35.345Z,23.37
2022-12-19T14:06:16.782Z,23.80
2022-12-19T14:09:20.511Z,23.30
2022-12-19T14:12:12.988Z,24.00
2022-12-19T14:14:46.921Z,24.20
2022-12-19T14:17:16.673Z,24.23
2022-12-19T14:19:46.731Z,25.20
2022-12-19T14:22:24.691Z,24.47
2022-12-19T14:26:06.056Z,24.43
2022-12-19T14:28:27.103Z,26.27
2022-12-19T14:30:44.711Z,22.67
2022-12-19T14:33:15.623Z,24.33
2022-12-19T14:36:08.442Z,25.37
2022-12-19T14:39:26.850Z,25.47
2022-12-19T14:42:15.043Z,26.40
2022-12-19T14:50:16.322Z,26.70
2022-12-19T14:54:05.914Z,25.23
2022-12-19T14:54:11.221Z,25.97
2022-12-19T14:54:28.083Z,25.33
2022-12-19T14:56:45.202Z,27.13
2022-12-19T14:59:07.527Z,24.97
2022-12-19T15:01:37.172Z,27.93
2022-12-19T15:04:51.295Z,25.37
2022-12-19T15:07:07.695Z,24.63
2022-12-19T15:10:59.933Z,25.27
2022-12-19T15:14:04.014Z,25.43
2022-12-19T15:15:46.303Z,28.40
2022-12-19T15:18:20.235Z,30.07
2022-12-19T15:20:48.680Z,30.43
2022-12-19T15:23:21.982Z,27.57
2022-12-19T15:26:07.859Z,26.47
2022-12-19T15:28:39.296Z,36.67
2022-12-19T15:31:12.977Z,31.47
2022-12-19T15:34:00.153Z,27.67
2022-12-19T15:36:29.855Z,29.73
2022-12-19T15:38:58.284Z,40.93
2022-12-19T15:41:26.984Z,54.97
2022-12-19T15:44:04.644Z,35.63
2022-12-19T15:46:35.377Z,32.83
2022-12-19T15:49:03.883Z,33.97
2022-12-19T15:51:32.298Z,39.17
2022-12-19T15:54:22.525Z,37.33
2022-12-19T15:56:52.253Z,48.50
2022-12-19T15:59:36.468Z,58.47
2022-12-19T16:02:15.879Z,50.40
2022-12-19T16:04:44.732Z,42.83
2022-12-19T16:07:16.104Z,37.77
2022-12-19T16:09:44.621Z,33.27
2022-12-19T16:12:15.435Z,31.87
2022-12-19T16:14:43.939Z,28.23
2022-12-19T16:17:16.867Z,31.83
2022-12-19T16:19:45.463Z,36.90
2022-12-19T16:22:18.484Z,34.97
2022-12-19T16:24:46.855Z,32.20
2022-12-19T16:27:19.937Z,31.43
2022-12-19T16:29:48.292Z,31.13
2022-12-19T16:32:18.572Z,31.57
2022-12-19T16:34:47.021Z,31.93
2022-12-19T16:37:15.432Z,31.83
2022-12-19T16:39:43.835Z,33.67
2022-12-19T16:42:16.238Z,33.07
2022-12-19T16:44:45.794Z,35.43
2022-12-19T16:47:14.733Z,31.80
2022-12-19T16:49:44.851Z,32.10
2022-12-19T16:52:13.637Z,35.83
2022-12-19T16:54:42.105Z,34.07
2022-12-19T16:57:17.647Z,36.77
2022-12-19T16:59:46.373Z,32.90
2022-12-19T17:02:29.319Z,33.47
2022-12-19T17:04:59.230Z,37.10
2022-12-19T17:07:28.112Z,65.53
2022-12-19T17:09:56.522Z,55.63
2022-12-19T17:12:26.329Z,31.73
2022-12-19T17:14:55.003Z,34.00
2022-12-19T17:17:23.435Z,34.13
2022-12-19T17:19:52.357Z,44.13
2022-12-19T17:22:22.527Z,34.73
2022-12-19T17:24:51.224Z,35.47
2022-12-19T17:27:21.032Z,35.93
2022-12-19T17:29:49.494Z,37.13
2022-12-19T17:32:24.017Z,41.13
2022-12-19T17:34:53.845Z,36.47
2022-12-19T17:37:23.880Z,36.63
2022-12-19T17:39:52.335Z,39.37
2022-12-19T17:42:22.832Z,36.70
2022-12-19T17:44:51.326Z,35.13
2022-12-19T17:47:21.024Z,36.50
2022-12-19T17:49:49.964Z,36.37
2022-12-19T17:52:19.483Z,36.60
2022-12-19T17:54:49.478Z,35.17
2022-12-19T17:57:18.416Z,34.17
2022-12-19T17:59:47.240Z,37.80
2022-12-19T18:02:20.860Z,35.23
2022-12-19T18:04:49.366Z,33.63
2022-12-19T18:07:19.204Z,32.13
2022-12-19T18:09:50.378Z,31.07
2022-12-19T18:12:18.789Z,31.00
2022-12-19T18:14:47.222Z,31.97
2022-12-19T18:17:17.779Z,32.47
2022-12-19T18:19:46.168Z,32.57
2022-12-19T18:22:15.120Z,31.43
2022-12-19T18:24:43.719Z,30.70
2022-12-19T18:27:13.531Z,37.17
2022-12-19T18:29:41.940Z,33.77
2022-12-19T18:32:18.888Z,32.60
2022-12-19T18:34:47.731Z,39.17
2022-12-19T18:37:17.275Z,33.57
2022-12-19T18:39:45.725Z,33.00
2022-12-19T18:42:22.375Z,39.40
2022-12-19T18:44:50.787Z,36.67
2022-12-19T18:47:21.421Z,36.57
2022-12-19T18:49:50.736Z,33.00
2022-12-19T18:52:19.201Z,32.57
2022-12-19T18:54:47.652Z,37.73
2022-12-19T18:57:16.041Z,34.63
2022-12-19T18:59:45.805Z,32.47
2022-12-19T19:02:20.858Z,33.03
2022-12-19T19:04:49.448Z,32.67
2022-12-19T19:07:17.867Z,36.13
2022-12-19T19:09:46.528Z,31.60
2022-12-19T19:12:14.996Z,32.60
2022-12-19T19:14:43.661Z,33.17
2022-12-19T19:17:19.413Z,33.07
2022-12-19T19:19:47.917Z,31.20
2022-12-19T19:22:16.390Z,31.57
2022-12-19T19:24:44.774Z,33.67
2022-12-19T19:27:13.261Z,33.90
2022-12-19T19:29:41.673Z,32.43
2022-12-19T19:32:10.123Z,35.60
2022-12-19T19:34:42.279Z,33.90
2022-12-19T19:37:11.603Z,34.77
2022-12-19T19:39:40.046Z,33.67
2022-12-19T19:42:08.399Z,35.30
2022-12-19T19:44:37.146Z,34.60
2022-12-19T19:47:05.795Z,33.40
2022-12-19T19:49:34.246Z,33.73
2022-12-19T19:52:04.360Z,34.10
2022-12-19T19:54:34.782Z,34.83
2022-12-19T19:57:03.348Z,33.67
2022-12-19T19:59:32.295Z,33.27
2022-12-19T20:02:00.854Z,34.17
2022-12-19T20:04:29.600Z,33.00
2022-12-19T20:06:58.107Z,34.37
2022-12-19T20:09:28.125Z,32.67
2022-12-19T20:11:57.106Z,33.73
2022-12-19T20:14:26.658Z,34.07
2022-12-19T20:16:55.207Z,32.40
2022-12-19T20:19:24.509Z,32.40
2022-12-19T20:21:53.109Z,31.30
2022-12-19T20:24:21.587Z,32.60
2022-12-19T20:26:51.400Z,32.00
2022-12-19T20:29:20.730Z,30.93
2022-12-19T20:31:49.231Z,32.53
2022-12-19T20:34:19.973Z,31.67
2022-12-19T20:36:48.493Z,33.37
2022-12-19T20:39:21.940Z,30.80
2022-12-19T20:41:52.478Z,31.73
2022-12-19T20:44:24.502Z,33.00
2022-12-19T20:46:53.352Z,31.93
2022-12-19T20:49:21.854Z,33.17
2022-12-19T20:51:50.250Z,32.80
2022-12-19T20:54:18.821Z,33.67
2022-12-19T20:56:47.354Z,34.40
2022-12-19T20:59:17.196Z,34.20
2022-12-19T21:01:45.720Z,32.73
2022-12-19T21:04:15.644Z,33.87
2022-12-19T21:06:44.242Z,34.40
2022-12-19T21:09:12.679Z,31.20
2022-12-19T21:11:41.150Z,31.67
2022-12-19T21:14:11.500Z,32.63
2022-12-19T21:16:41.374Z,32.43
2022-12-19T21:19:09.871Z,34.03
2022-12-19T21:21:38.386Z,37.87
2022-12-19T21:24:07.337Z,36.43
2022-12-19T21:26:35.828Z,34.67
2022-12-19T21:29:05.068Z,36.00
2022-12-19T21:31:33.539Z,35.47
2022-12-19T21:34:03.640Z,35.90
2022-12-19T21:36:32.688Z,36.00
2022-12-19T21:39:02.701Z,37.23
2022-12-19T21:41:31.281Z,37.83
2022-12-19T21:44:00.673Z,40.23
2022-12-19T21:46:30.497Z,40.90
2022-12-19T21:48:59.054Z,40.47
2022-12-19T21:51:29.743Z,36.63
2022-12-19T21:54:00.451Z,39.83
2022-12-19T21:56:30.057Z,40.33
2022-12-19T21:58:59.267Z,38.07
2022-12-19T22:01:28.125Z,37.53
2022-12-19T22:03:59.546Z,38.10
2022-12-19T22:06:30.727Z,39.37
2022-12-19T22:08:59.312Z,37.53
2022-12-19T22:11:28.585Z,39.17
2022-12-19T22:13:57.459Z,41.17
2022-12-19T22:16:26.010Z,43.50
2022-12-19T22:18:55.014Z,41.90
2022-12-19T22:21:23.419Z,42.63
2022-12-19T22:23:57.754Z,40.37
2022-12-19T22:26:26.615Z,40.47
2022-12-19T22:28:56.097Z,38.17
2022-12-19T22:31:26.039Z,38.93
2022-12-19T22:33:56.160Z,39.63
2022-12-19T22:36:28.344Z,36.43
2022-12-19T22:38:59.081Z,37.93
2022-12-19T22:41:27.871Z,35.47
2022-12-19T22:43:56.778Z,37.03
2022-12-19T22:46:26.872Z,36.60
2022-12-19T22:48:57.611Z,35.03
2022-12-19T22:51:26.507Z,35.13
2022-12-19T22:53:55.021Z,34.37
2022-12-19T22:56:25.928Z,34.33
2022-12-19T22:58:55.376Z,32.77
2022-12-19T23:01:24.770Z,31.73
2022-12-19T23:03:54.028Z,32.80
2022-12-19T23:06:23.095Z,33.60
2022-12-19T23:08:51.699Z,32.97
2022-12-19T23:11:21.695Z,33.63
2022-12-19T23:13:51.880Z,32.27
2022-12-19T23:16:20.408Z,33.07
2022-12-19T23:18:48.898Z,32.37
2022-12-19T23:21:18.451Z,32.37
2022-12-19T23:23:47.906Z,33.63
2022-12-19T23:26:18.167Z,32.63
2022-12-19T23:28:51.358Z,31.17
2022-12-19T23:31:21.662Z,34.40
2022-12-19T23:33:50.716Z,31.53
2022-12-19T23:36:38.078Z,32.10
2022-12-19T23:39:07.952Z,31.20
2022-12-19T23:41:36.402Z,30.17
2022-12-19T23:44:05.111Z,30.90
2022-12-19T23:46:34.950Z,31.13
2022-12-19T23:49:03.501Z,32.13
2022-12-19T23:51:32.214Z,31.60
2022-12-19T23:54:00.660Z,31.03
2022-12-19T23:56:30.273Z,32.47
2022-12-19T23:58:59.169Z,31.40
